sensor_id;sensor_type;location;lat;lon;timestamp;temperature;humidity
12700;DHT22;6414;49.570;6.060;2023-11-19T00:00:48;9.90;99.90
12700;DHT22;6414;49.570;6.060;2023-11-19T00:03:34;9.90;99.90
12700;DHT22;6414;49.570;6.060;2023-11-19T00:06:19;10.00;99.90
12700;DHT22;6414;49.570;6.060;2023-11-19T00:09:05;9.90;99.90
12700;DHT22;6414;49.570;6.060;2023-11-19T00:11:51;10.00;99.90
12700;DHT22;6414;49.570;6.060;2023-11-19T00:14:37;10.00;99.90
12700;DHT22;6414;49.570;6.060;2023-11-19T00:17:23;10.00;99.90
12700;DHT22;6414;49.570;6.060;2023-11-19T00:20:09;10.00;99.90
12700;DHT22;6414;49.570;6.060;2023-11-19T00:22:55;10.10;99.90
12700;DHT22;6414;49.570;6.060;2023-11-19T00:25:40;10.00;99.90
12700;DHT22;6414;49.570;6.060;2023-11-19T00:28:27;10.00;99.90
12700;DHT22;6414;49.570;6.060;2023-11-19T00:31:12;10.10;99.90
12700;DHT22;6414;49.570;6.060;2023-11-19T00:33:58;10.10;99.90
12700;DHT22;6414;49.570;6.060;2023-11-19T00:36:44;10.10;99.90
12700;DHT22;6414;49.570;6.060;2023-11-19T00:39:30;10.10;99.90
12700;DHT22;6414;49.570;6.060;2023-11-19T00:42:16;10.10;99.90
12700;DHT22;6414;49.570;6.060;2023-11-19T00:45:02;10.10;99.90
12700;DHT22;6414;49.570;6.060;2023-11-19T00:47:47;10.10;99.90
12700;DHT22;6414;49.570;6.060;2023-11-19T00:50:34;10.10;99.90
12700;DHT22;6414;49.570;6.060;2023-11-19T00:53:20;10.20;99.90
12700;DHT22;6414;49.570;6.060;2023-11-19T00:56:06;10.20;99.90
12700;DHT22;6414;49.570;6.060;2023-11-19T00:58:52;10.30;99.90
12700;DHT22;6414;49.570;6.060;2023-11-19T01:01:38;10.30;99.90
12700;DHT22;6414;49.570;6.060;2023-11-19T01:04:25;10.40;99.90
12700;DHT22;6414;49.570;6.060;2023-11-19T01:07:11;10.40;99.90
12700;DHT22;6414;49.570;6.060;2023-11-19T01:09:57;10.40;99.90
12700;DHT22;6414;49.570;6.060;2023-11-19T01:12:43;10.50;99.90
12700;DHT22;6414;49.570;6.060;2023-11-19T01:15:29;10.50;99.90
12700;DHT22;6414;49.570;6.060;2023-11-19T01:18:15;10.60;99.90
12700;DHT22;6414;49.570;6.060;2023-11-19T01:21:01;10.60;99.90
12700;DHT22;6414;49.570;6.060;2023-11-19T01:23:47;10.60;99.90
12700;DHT22;6414;49.570;6.060;2023-11-19T01:26:33;10.70;99.90
12700;DHT22;6414;49.570;6.060;2023-11-19T01:29:19;10.70;99.90
12700;DHT22;6414;49.570;6.060;2023-11-19T01:32:05;10.80;99.90
12700;DHT22;6414;49.570;6.060;2023-11-19T01:34:51;10.80;99.90
12700;DHT22;6414;49.570;6.060;2023-11-19T01:37:37;10.80;99.90
12700;DHT22;6414;49.570;6.060;2023-11-19T01:40:23;10.80;99.90
12700;DHT22;6414;49.570;6.060;2023-11-19T01:43:09;10.90;99.90
12700;DHT22;6414;49.570;6.060;2023-11-19T01:45:55;10.90;99.90
12700;DHT22;6414;49.570;6.060;2023-11-19T01:48:42;11.00;99.90
12700;DHT22;6414;49.570;6.060;2023-11-19T01:51:27;11.00;99.90
12700;DHT22;6414;49.570;6.060;2023-11-19T01:54:13;11.10;99.90
12700;DHT22;6414;49.570;6.060;2023-11-19T01:56:59;11.10;99.90
12700;DHT22;6414;49.570;6.060;2023-11-19T01:59:46;11.10;99.90
12700;DHT22;6414;49.570;6.060;2023-11-19T02:02:31;11.20;99.90
12700;DHT22;6414;49.570;6.060;2023-11-19T02:05:18;11.20;99.90
12700;DHT22;6414;49.570;6.060;2023-11-19T02:08:04;11.20;99.90
12700;DHT22;6414;49.570;6.060;2023-11-19T02:10:50;11.30;99.90
12700;DHT22;6414;49.570;6.060;2023-11-19T02:13:37;11.30;99.90
12700;DHT22;6414;49.570;6.060;2023-11-19T02:16:22;11.30;99.90
12700;DHT22;6414;49.570;6.060;2023-11-19T02:19:09;11.30;99.90
12700;DHT22;6414;49.570;6.060;2023-11-19T02:21:55;11.40;99.90
12700;DHT22;6414;49.570;6.060;2023-11-19T02:24:42;11.40;99.90
12700;DHT22;6414;49.570;6.060;2023-11-19T02:27:44;11.40;99.90
12700;DHT22;6414;49.570;6.060;2023-11-19T02:30:28;11.50;99.90
12700;DHT22;6414;49.570;6.060;2023-11-19T02:33:14;11.50;99.90
12700;DHT22;6414;49.570;6.060;2023-11-19T02:36:00;11.60;99.90
12700;DHT22;6414;49.570;6.060;2023-11-19T02:38:46;11.60;99.90
12700;DHT22;6414;49.570;6.060;2023-11-19T02:41:32;11.60;99.90
12700;DHT22;6414;49.570;6.060;2023-11-19T02:44:18;11.60;99.90
12700;DHT22;6414;49.570;6.060;2023-11-19T02:47:05;11.70;99.90
12700;DHT22;6414;49.570;6.060;2023-11-19T02:49:49;11.70;99.90
12700;DHT22;6414;49.570;6.060;2023-11-19T02:52:36;11.70;99.90
12700;DHT22;6414;49.570;6.060;2023-11-19T02:55:22;11.70;99.90
12700;DHT22;6414;49.570;6.060;2023-11-19T02:58:08;11.70;99.90
12700;DHT22;6414;49.570;6.060;2023-11-19T03:00:55;11.70;99.90
12700;DHT22;6414;49.570;6.060;2023-11-19T03:03:40;11.80;99.90
12700;DHT22;6414;49.570;6.060;2023-11-19T03:06:27;11.80;99.90
12700;DHT22;6414;49.570;6.060;2023-11-19T03:09:13;11.80;99.90
12700;DHT22;6414;49.570;6.060;2023-11-19T03:11:59;11.80;99.90
12700;DHT22;6414;49.570;6.060;2023-11-19T03:14:45;11.80;99.90
12700;DHT22;6414;49.570;6.060;2023-11-19T03:17:32;11.80;99.90
12700;DHT22;6414;49.570;6.060;2023-11-19T03:20:18;11.80;99.90
12700;DHT22;6414;49.570;6.060;2023-11-19T03:23:04;11.80;99.90
12700;DHT22;6414;49.570;6.060;2023-11-19T03:25:50;11.90;99.90
12700;DHT22;6414;49.570;6.060;2023-11-19T03:28:37;11.90;99.90
12700;DHT22;6414;49.570;6.060;2023-11-19T03:31:23;11.90;99.90
12700;DHT22;6414;49.570;6.060;2023-11-19T03:34:09;11.90;99.90
12700;DHT22;6414;49.570;6.060;2023-11-19T03:36:55;11.90;99.90
12700;DHT22;6414;49.570;6.060;2023-11-19T03:39:41;11.90;99.90
12700;DHT22;6414;49.570;6.060;2023-11-19T03:42:27;12.00;99.90
12700;DHT22;6414;49.570;6.060;2023-11-19T03:45:13;11.90;99.90
12700;DHT22;6414;49.570;6.060;2023-11-19T03:47:59;11.90;99.90
12700;DHT22;6414;49.570;6.060;2023-11-19T03:50:45;12.00;99.90
12700;DHT22;6414;49.570;6.060;2023-11-19T03:53:31;11.90;99.90
12700;DHT22;6414;49.570;6.060;2023-11-19T03:56:17;11.90;99.90
12700;DHT22;6414;49.570;6.060;2023-11-19T03:59:03;12.00;99.90
12700;DHT22;6414;49.570;6.060;2023-11-19T04:01:49;12.00;99.90
12700;DHT22;6414;49.570;6.060;2023-11-19T04:04:36;12.00;99.90
12700;DHT22;6414;49.570;6.060;2023-11-19T04:07:22;12.00;99.90
12700;DHT22;6414;49.570;6.060;2023-11-19T04:10:08;12.10;99.90
12700;DHT22;6414;49.570;6.060;2023-11-19T04:12:54;12.10;99.90
12700;DHT22;6414;49.570;6.060;2023-11-19T04:15:43;12.10;99.90
12700;DHT22;6414;49.570;6.060;2023-11-19T04:18:29;12.10;99.90
12700;DHT22;6414;49.570;6.060;2023-11-19T04:21:16;12.10;99.90
12700;DHT22;6414;49.570;6.060;2023-11-19T04:24:02;12.10;99.90
12700;DHT22;6414;49.570;6.060;2023-11-19T04:26:48;12.00;99.90
12700;DHT22;6414;49.570;6.060;2023-11-19T04:29:34;12.00;99.90
12700;DHT22;6414;49.570;6.060;2023-11-19T04:32:20;12.00;99.90
12700;DHT22;6414;49.570;6.060;2023-11-19T04:35:07;12.00;99.90
12700;DHT22;6414;49.570;6.060;2023-11-19T04:37:53;12.00;99.90
12700;DHT22;6414;49.570;6.060;2023-11-19T04:40:39;12.00;99.90
12700;DHT22;6414;49.570;6.060;2023-11-19T04:43:26;12.00;99.90
12700;DHT22;6414;49.570;6.060;2023-11-19T04:46:12;12.00;99.90
12700;DHT22;6414;49.570;6.060;2023-11-19T04:48:58;11.90;99.90
12700;DHT22;6414;49.570;6.060;2023-11-19T04:51:45;11.80;99.90
12700;DHT22;6414;49.570;6.060;2023-11-19T04:54:33;11.80;99.90
12700;DHT22;6414;49.570;6.060;2023-11-19T04:57:20;11.80;99.90
12700;DHT22;6414;49.570;6.060;2023-11-19T05:00:05;11.80;99.90
12700;DHT22;6414;49.570;6.060;2023-11-19T05:02:51;11.70;99.90
12700;DHT22;6414;49.570;6.060;2023-11-19T05:05:38;11.50;99.90
12700;DHT22;6414;49.570;6.060;2023-11-19T05:08:24;11.60;99.90
12700;DHT22;6414;49.570;6.060;2023-11-19T05:11:10;11.50;99.90
12700;DHT22;6414;49.570;6.060;2023-11-19T05:13:56;11.50;99.90
12700;DHT22;6414;49.570;6.060;2023-11-19T05:16:42;11.50;99.90
12700;DHT22;6414;49.570;6.060;2023-11-19T05:19:28;11.50;99.90
12700;DHT22;6414;49.570;6.060;2023-11-19T05:22:15;11.60;99.90
12700;DHT22;6414;49.570;6.060;2023-11-19T05:25:01;11.60;99.90
12700;DHT22;6414;49.570;6.060;2023-11-19T05:27:47;11.60;99.90
12700;DHT22;6414;49.570;6.060;2023-11-19T05:30:34;11.60;99.90
12700;DHT22;6414;49.570;6.060;2023-11-19T05:33:21;11.70;99.90
12700;DHT22;6414;49.570;6.060;2023-11-19T05:36:08;11.70;99.90
12700;DHT22;6414;49.570;6.060;2023-11-19T05:38:54;11.70;99.90
12700;DHT22;6414;49.570;6.060;2023-11-19T05:41:40;11.70;99.90
12700;DHT22;6414;49.570;6.060;2023-11-19T05:44:26;11.70;99.90
12700;DHT22;6414;49.570;6.060;2023-11-19T05:47:12;11.60;99.90
12700;DHT22;6414;49.570;6.060;2023-11-19T05:49:58;11.60;99.90
12700;DHT22;6414;49.570;6.060;2023-11-19T05:52:44;11.50;99.90
12700;DHT22;6414;49.570;6.060;2023-11-19T05:55:30;11.50;99.90
12700;DHT22;6414;49.570;6.060;2023-11-19T05:58:17;11.50;99.90
12700;DHT22;6414;49.570;6.060;2023-11-19T06:01:03;11.60;99.90
12700;DHT22;6414;49.570;6.060;2023-11-19T06:03:49;11.60;99.90
12700;DHT22;6414;49.570;6.060;2023-11-19T06:06:38;11.50;99.90
12700;DHT22;6414;49.570;6.060;2023-11-19T06:09:21;11.60;99.90
12700;DHT22;6414;49.570;6.060;2023-11-19T06:12:07;11.60;99.90
12700;DHT22;6414;49.570;6.060;2023-11-19T06:14:54;11.50;99.90
12700;DHT22;6414;49.570;6.060;2023-11-19T06:17:40;11.50;99.90
12700;DHT22;6414;49.570;6.060;2023-11-19T06:20:27;11.50;99.90
12700;DHT22;6414;49.570;6.060;2023-11-19T06:23:13;11.50;99.90
12700;DHT22;6414;49.570;6.060;2023-11-19T06:26:00;11.50;99.90
12700;DHT22;6414;49.570;6.060;2023-11-19T06:28:46;11.50;99.90
12700;DHT22;6414;49.570;6.060;2023-11-19T06:31:32;11.50;99.90
12700;DHT22;6414;49.570;6.060;2023-11-19T06:34:19;11.60;99.90
12700;DHT22;6414;49.570;6.060;2023-11-19T06:37:05;11.50;99.90
12700;DHT22;6414;49.570;6.060;2023-11-19T06:39:51;11.50;99.90
12700;DHT22;6414;49.570;6.060;2023-11-19T06:42:37;11.40;99.90
12700;DHT22;6414;49.570;6.060;2023-11-19T06:45:23;11.40;99.90
12700;DHT22;6414;49.570;6.060;2023-11-19T06:48:09;11.40;99.90
12700;DHT22;6414;49.570;6.060;2023-11-19T06:50:55;11.20;99.90
12700;DHT22;6414;49.570;6.060;2023-11-19T06:53:42;11.30;99.90
12700;DHT22;6414;49.570;6.060;2023-11-19T06:56:27;11.30;99.90
12700;DHT22;6414;49.570;6.060;2023-11-19T06:59:13;11.20;99.90
12700;DHT22;6414;49.570;6.060;2023-11-19T07:01:59;11.20;99.90
12700;DHT22;6414;49.570;6.060;2023-11-19T07:04:45;11.20;99.90
12700;DHT22;6414;49.570;6.060;2023-11-19T07:07:31;11.20;99.90
12700;DHT22;6414;49.570;6.060;2023-11-19T07:10:17;11.20;99.90
12700;DHT22;6414;49.570;6.060;2023-11-19T07:13:03;11.20;99.90
12700;DHT22;6414;49.570;6.060;2023-11-19T07:15:50;11.30;99.90
12700;DHT22;6414;49.570;6.060;2023-11-19T07:18:36;11.30;99.90
12700;DHT22;6414;49.570;6.060;2023-11-19T07:21:22;11.30;99.90
12700;DHT22;6414;49.570;6.060;2023-11-19T07:24:08;11.30;99.90
12700;DHT22;6414;49.570;6.060;2023-11-19T07:26:54;11.30;99.90
12700;DHT22;6414;49.570;6.060;2023-11-19T07:29:40;11.30;99.90
12700;DHT22;6414;49.570;6.060;2023-11-19T07:32:26;11.30;99.90
12700;DHT22;6414;49.570;6.060;2023-11-19T07:35:12;11.40;99.90
12700;DHT22;6414;49.570;6.060;2023-11-19T07:37:58;11.40;99.90
12700;DHT22;6414;49.570;6.060;2023-11-19T07:40:45;11.70;99.90
12700;DHT22;6414;49.570;6.060;2023-11-19T07:43:32;11.70;99.90
12700;DHT22;6414;49.570;6.060;2023-11-19T07:46:18;11.70;99.90
12700;DHT22;6414;49.570;6.060;2023-11-19T07:49:07;11.80;99.90
12700;DHT22;6414;49.570;6.060;2023-11-19T07:51:53;11.80;99.90
12700;DHT22;6414;49.570;6.060;2023-11-19T07:54:38;11.80;99.90
12700;DHT22;6414;49.570;6.060;2023-11-19T07:57:24;11.80;99.90
12700;DHT22;6414;49.570;6.060;2023-11-19T08:00:10;11.90;99.90
12700;DHT22;6414;49.570;6.060;2023-11-19T08:02:57;11.80;99.90
12700;DHT22;6414;49.570;6.060;2023-11-19T08:05:43;11.80;99.90
12700;DHT22;6414;49.570;6.060;2023-11-19T08:08:29;11.70;99.90
12700;DHT22;6414;49.570;6.060;2023-11-19T08:11:15;11.80;99.90
12700;DHT22;6414;49.570;6.060;2023-11-19T08:14:02;11.70;99.90
12700;DHT22;6414;49.570;6.060;2023-11-19T08:16:48;11.70;99.90
12700;DHT22;6414;49.570;6.060;2023-11-19T08:19:34;11.70;99.90
12700;DHT22;6414;49.570;6.060;2023-11-19T08:22:20;11.70;99.90
12700;DHT22;6414;49.570;6.060;2023-11-19T08:25:06;11.70;99.90
12700;DHT22;6414;49.570;6.060;2023-11-19T08:27:52;11.80;99.90
12700;DHT22;6414;49.570;6.060;2023-11-19T08:30:38;11.80;99.90
12700;DHT22;6414;49.570;6.060;2023-11-19T08:33:24;11.80;99.90
12700;DHT22;6414;49.570;6.060;2023-11-19T08:36:20;11.70;99.90
12700;DHT22;6414;49.570;6.060;2023-11-19T08:38:56;11.80;99.90
12700;DHT22;6414;49.570;6.060;2023-11-19T08:41:43;11.80;99.90
12700;DHT22;6414;49.570;6.060;2023-11-19T08:44:29;11.80;99.90
12700;DHT22;6414;49.570;6.060;2023-11-19T08:47:15;12.10;99.90
12700;DHT22;6414;49.570;6.060;2023-11-19T08:50:01;13.00;99.90
12700;DHT22;6414;49.570;6.060;2023-11-19T08:52:47;13.70;99.90
12700;DHT22;6414;49.570;6.060;2023-11-19T08:55:33;14.00;99.90
12700;DHT22;6414;49.570;6.060;2023-11-19T08:58:19;14.50;99.90
12700;DHT22;6414;49.570;6.060;2023-11-19T09:01:05;14.20;99.90
12700;DHT22;6414;49.570;6.060;2023-11-19T09:03:51;14.70;99.90
12700;DHT22;6414;49.570;6.060;2023-11-19T09:06:37;14.80;99.90
12700;DHT22;6414;49.570;6.060;2023-11-19T09:09:23;14.20;99.90
12700;DHT22;6414;49.570;6.060;2023-11-19T09:12:09;15.00;99.90
12700;DHT22;6414;49.570;6.060;2023-11-19T09:14:56;15.30;99.90
12700;DHT22;6414;49.570;6.060;2023-11-19T09:17:43;14.50;99.90
12700;DHT22;6414;49.570;6.060;2023-11-19T09:20:29;14.40;99.90
12700;DHT22;6414;49.570;6.060;2023-11-19T09:23:15;13.90;99.90
12700;DHT22;6414;49.570;6.060;2023-11-19T09:26:01;12.40;99.90
12700;DHT22;6414;49.570;6.060;2023-11-19T09:28:47;12.60;99.90
12700;DHT22;6414;49.570;6.060;2023-11-19T09:31:33;12.30;99.90
12700;DHT22;6414;49.570;6.060;2023-11-19T09:34:20;11.80;99.90
12700;DHT22;6414;49.570;6.060;2023-11-19T09:37:06;11.60;99.90
12700;DHT22;6414;49.570;6.060;2023-11-19T09:39:52;11.60;99.90
12700;DHT22;6414;49.570;6.060;2023-11-19T09:42:42;11.60;99.90
12700;DHT22;6414;49.570;6.060;2023-11-19T09:45:24;11.70;99.90
12700;DHT22;6414;49.570;6.060;2023-11-19T09:48:10;11.60;99.90
12700;DHT22;6414;49.570;6.060;2023-11-19T09:50:56;11.70;99.90
12700;DHT22;6414;49.570;6.060;2023-11-19T09:53:42;11.70;99.90
12700;DHT22;6414;49.570;6.060;2023-11-19T09:56:28;11.70;99.90
12700;DHT22;6414;49.570;6.060;2023-11-19T09:59:13;11.90;99.90
12700;DHT22;6414;49.570;6.060;2023-11-19T10:01:59;11.90;99.90
12700;DHT22;6414;49.570;6.060;2023-11-19T10:04:45;12.10;99.90
12700;DHT22;6414;49.570;6.060;2023-11-19T10:07:31;12.10;99.90
12700;DHT22;6414;49.570;6.060;2023-11-19T10:10:55;11.80;99.90
12700;DHT22;6414;49.570;6.060;2023-11-19T10:13:41;11.70;99.90
12700;DHT22;6414;49.570;6.060;2023-11-19T10:16:30;11.80;99.90
12700;DHT22;6414;49.570;6.060;2023-11-19T10:19:19;11.70;99.90
12700;DHT22;6414;49.570;6.060;2023-11-19T10:22:05;12.00;99.90
12700;DHT22;6414;49.570;6.060;2023-11-19T10:24:52;12.50;99.90
12700;DHT22;6414;49.570;6.060;2023-11-19T10:27:38;12.50;99.90
12700;DHT22;6414;49.570;6.060;2023-11-19T10:30:25;12.50;99.90
12700;DHT22;6414;49.570;6.060;2023-11-19T10:33:11;12.50;99.90
12700;DHT22;6414;49.570;6.060;2023-11-19T10:35:57;12.30;99.90
12700;DHT22;6414;49.570;6.060;2023-11-19T10:38:53;12.30;99.90
12700;DHT22;6414;49.570;6.060;2023-11-19T10:41:39;12.30;99.90
12700;DHT22;6414;49.570;6.060;2023-11-19T10:44:31;12.70;99.90
12700;DHT22;6414;49.570;6.060;2023-11-19T10:47:20;13.00;99.90
12700;DHT22;6414;49.570;6.060;2023-11-19T10:50:06;13.20;99.90
12700;DHT22;6414;49.570;6.060;2023-11-19T10:52:54;13.40;99.90
12700;DHT22;6414;49.570;6.060;2023-11-19T10:55:39;13.00;99.90
12700;DHT22;6414;49.570;6.060;2023-11-19T10:58:24;13.00;99.90
12700;DHT22;6414;49.570;6.060;2023-11-19T11:01:16;12.90;99.90
12700;DHT22;6414;49.570;6.060;2023-11-19T11:03:56;12.90;99.90
12700;DHT22;6414;49.570;6.060;2023-11-19T11:06:42;13.00;99.90
12700;DHT22;6414;49.570;6.060;2023-11-19T11:09:29;12.80;99.90
12700;DHT22;6414;49.570;6.060;2023-11-19T11:12:14;12.50;99.90
12700;DHT22;6414;49.570;6.060;2023-11-19T11:15:00;12.60;99.90
12700;DHT22;6414;49.570;6.060;2023-11-19T11:17:46;12.40;99.90
12700;DHT22;6414;49.570;6.060;2023-11-19T11:20:33;12.20;99.90
12700;DHT22;6414;49.570;6.060;2023-11-19T11:32:51;11.90;99.90
12700;DHT22;6414;49.570;6.060;2023-11-19T11:35:50;12.00;99.90
12700;DHT22;6414;49.570;6.060;2023-11-19T11:38:36;11.90;99.90
12700;DHT22;6414;49.570;6.060;2023-11-19T11:41:26;11.80;99.90
12700;DHT22;6414;49.570;6.060;2023-11-19T11:44:11;11.80;99.90
12700;DHT22;6414;49.570;6.060;2023-11-19T11:46:57;11.60;99.90
12700;DHT22;6414;49.570;6.060;2023-11-19T11:49:42;11.50;99.90
12700;DHT22;6414;49.570;6.060;2023-11-19T11:52:29;11.70;99.90
12700;DHT22;6414;49.570;6.060;2023-11-19T11:55:14;11.70;99.90
12700;DHT22;6414;49.570;6.060;2023-11-19T11:58:00;11.80;99.90
12700;DHT22;6414;49.570;6.060;2023-11-19T12:00:45;12.00;99.90
12700;DHT22;6414;49.570;6.060;2023-11-19T12:03:32;12.10;99.90
12700;DHT22;6414;49.570;6.060;2023-11-19T12:06:20;12.30;99.90
12700;DHT22;6414;49.570;6.060;2023-11-19T12:09:03;12.30;99.90
12700;DHT22;6414;49.570;6.060;2023-11-19T12:11:48;12.30;99.90
12700;DHT22;6414;49.570;6.060;2023-11-19T12:17:48;12.40;99.90
12700;DHT22;6414;49.570;6.060;2023-11-19T12:20:36;12.40;99.90
12700;DHT22;6414;49.570;6.060;2023-11-19T12:23:22;12.70;99.90
12700;DHT22;6414;49.570;6.060;2023-11-19T12:26:07;12.60;99.90
12700;DHT22;6414;49.570;6.060;2023-11-19T12:29:00;12.70;99.90
12700;DHT22;6414;49.570;6.060;2023-11-19T12:31:53;13.00;99.90
12700;DHT22;6414;49.570;6.060;2023-11-19T12:34:31;13.10;99.90
12700;DHT22;6414;49.570;6.060;2023-11-19T12:37:16;13.10;99.90
12700;DHT22;6414;49.570;6.060;2023-11-19T12:40:02;13.10;99.90
12700;DHT22;6414;49.570;6.060;2023-11-19T12:42:52;13.20;99.90
12700;DHT22;6414;49.570;6.060;2023-11-19T12:45:36;13.10;99.90
12700;DHT22;6414;49.570;6.060;2023-11-19T12:48:22;13.10;99.90
12700;DHT22;6414;49.570;6.060;2023-11-19T12:51:09;13.00;99.90
12700;DHT22;6414;49.570;6.060;2023-11-19T12:53:54;12.80;99.90
12700;DHT22;6414;49.570;6.060;2023-11-19T12:56:40;12.60;99.90
12700;DHT22;6414;49.570;6.060;2023-11-19T12:59:26;12.70;99.90
12700;DHT22;6414;49.570;6.060;2023-11-19T13:02:12;12.80;99.90
12700;DHT22;6414;49.570;6.060;2023-11-19T13:04:58;12.80;99.90
12700;DHT22;6414;49.570;6.060;2023-11-19T13:07:44;12.60;99.90
12700;DHT22;6414;49.570;6.060;2023-11-19T13:10:29;12.50;99.90
12700;DHT22;6414;49.570;6.060;2023-11-19T13:13:15;12.70;99.90
12700;DHT22;6414;49.570;6.060;2023-11-19T13:16:04;12.30;99.90
12700;DHT22;6414;49.570;6.060;2023-11-19T13:18:50;12.40;99.90
12700;DHT22;6414;49.570;6.060;2023-11-19T13:21:36;12.20;99.90
12700;DHT22;6414;49.570;6.060;2023-11-19T13:24:22;12.30;99.90
12700;DHT22;6414;49.570;6.060;2023-11-19T13:27:07;12.10;99.90
12700;DHT22;6414;49.570;6.060;2023-11-19T13:29:53;11.80;99.90
12700;DHT22;6414;49.570;6.060;2023-11-19T13:32:39;11.80;99.90
12700;DHT22;6414;49.570;6.060;2023-11-19T13:35:26;11.90;99.90
12700;DHT22;6414;49.570;6.060;2023-11-19T13:38:12;11.80;99.90
12700;DHT22;6414;49.570;6.060;2023-11-19T13:40:58;11.70;99.90
12700;DHT22;6414;49.570;6.060;2023-11-19T13:43:45;11.70;99.90
12700;DHT22;6414;49.570;6.060;2023-11-19T13:46:31;11.80;99.90
12700;DHT22;6414;49.570;6.060;2023-11-19T13:49:17;11.70;99.90
12700;DHT22;6414;49.570;6.060;2023-11-19T13:52:03;11.70;99.90
12700;DHT22;6414;49.570;6.060;2023-11-19T13:54:49;11.60;99.90
12700;DHT22;6414;49.570;6.060;2023-11-19T13:57:36;11.70;99.90
12700;DHT22;6414;49.570;6.060;2023-11-19T14:00:22;11.70;99.90
12700;DHT22;6414;49.570;6.060;2023-11-19T14:03:08;11.90;99.90
12700;DHT22;6414;49.570;6.060;2023-11-19T14:05:54;12.00;99.90
12700;DHT22;6414;49.570;6.060;2023-11-19T14:08:40;12.00;99.90
12700;DHT22;6414;49.570;6.060;2023-11-19T14:11:27;12.00;99.90
12700;DHT22;6414;49.570;6.060;2023-11-19T14:14:13;12.00;99.90
12700;DHT22;6414;49.570;6.060;2023-11-19T14:16:59;12.10;99.90
12700;DHT22;6414;49.570;6.060;2023-11-19T14:19:45;12.40;99.90
12700;DHT22;6414;49.570;6.060;2023-11-19T14:22:31;12.40;99.90
12700;DHT22;6414;49.570;6.060;2023-11-19T14:25:17;12.40;99.90
12700;DHT22;6414;49.570;6.060;2023-11-19T14:28:03;12.40;99.90
12700;DHT22;6414;49.570;6.060;2023-11-19T14:30:49;12.30;99.90
12700;DHT22;6414;49.570;6.060;2023-11-19T14:33:35;12.20;99.90
12700;DHT22;6414;49.570;6.060;2023-11-19T14:36:21;11.90;99.90
12700;DHT22;6414;49.570;6.060;2023-11-19T14:39:08;11.80;99.90
12700;DHT22;6414;49.570;6.060;2023-11-19T14:41:54;11.80;99.90
12700;DHT22;6414;49.570;6.060;2023-11-19T14:44:40;11.80;99.90
12700;DHT22;6414;49.570;6.060;2023-11-19T14:47:26;11.70;99.90
12700;DHT22;6414;49.570;6.060;2023-11-19T14:50:13;11.40;99.90
12700;DHT22;6414;49.570;6.060;2023-11-19T14:52:59;11.40;99.90
12700;DHT22;6414;49.570;6.060;2023-11-19T14:55:45;11.40;99.90
12700;DHT22;6414;49.570;6.060;2023-11-19T14:58:32;11.40;99.90
12700;DHT22;6414;49.570;6.060;2023-11-19T15:01:18;11.20;99.90
12700;DHT22;6414;49.570;6.060;2023-11-19T15:04:04;11.00;99.90
12700;DHT22;6414;49.570;6.060;2023-11-19T15:06:50;11.10;99.90
12700;DHT22;6414;49.570;6.060;2023-11-19T15:09:36;11.20;99.90
12700;DHT22;6414;49.570;6.060;2023-11-19T15:12:23;11.00;99.90
12700;DHT22;6414;49.570;6.060;2023-11-19T15:15:09;11.10;99.90
12700;DHT22;6414;49.570;6.060;2023-11-19T15:18:01;11.10;99.90
12700;DHT22;6414;49.570;6.060;2023-11-19T15:20:47;10.90;99.90
12700;DHT22;6414;49.570;6.060;2023-11-19T15:23:33;10.90;99.90
12700;DHT22;6414;49.570;6.060;2023-11-19T15:26:19;10.80;99.90
12700;DHT22;6414;49.570;6.060;2023-11-19T15:29:05;10.80;99.90
12700;DHT22;6414;49.570;6.060;2023-11-19T15:31:52;10.70;99.90
12700;DHT22;6414;49.570;6.060;2023-11-19T15:34:38;10.70;99.90
12700;DHT22;6414;49.570;6.060;2023-11-19T15:37:24;10.80;99.90
12700;DHT22;6414;49.570;6.060;2023-11-19T15:40:10;10.90;99.90
12700;DHT22;6414;49.570;6.060;2023-11-19T15:42:56;10.90;99.90
12700;DHT22;6414;49.570;6.060;2023-11-19T15:45:43;11.00;99.90
12700;DHT22;6414;49.570;6.060;2023-11-19T15:48:29;11.00;99.90
12700;DHT22;6414;49.570;6.060;2023-11-19T15:51:15;11.00;99.90
12700;DHT22;6414;49.570;6.060;2023-11-19T15:54:01;11.00;99.90
12700;DHT22;6414;49.570;6.060;2023-11-19T15:56:48;10.90;99.90
12700;DHT22;6414;49.570;6.060;2023-11-19T15:59:33;10.90;99.90
12700;DHT22;6414;49.570;6.060;2023-11-19T16:02:19;10.90;99.90
12700;DHT22;6414;49.570;6.060;2023-11-19T16:05:05;10.90;99.90
12700;DHT22;6414;49.570;6.060;2023-11-19T16:07:51;10.80;99.90
12700;DHT22;6414;49.570;6.060;2023-11-19T16:10:38;10.70;99.90
12700;DHT22;6414;49.570;6.060;2023-11-19T16:13:24;10.70;99.90
12700;DHT22;6414;49.570;6.060;2023-11-19T16:16:10;10.60;99.90
12700;DHT22;6414;49.570;6.060;2023-11-19T16:18:56;10.60;99.90
12700;DHT22;6414;49.570;6.060;2023-11-19T16:21:43;10.60;99.90
12700;DHT22;6414;49.570;6.060;2023-11-19T16:24:29;10.50;99.90
12700;DHT22;6414;49.570;6.060;2023-11-19T16:27:15;10.50;99.90
12700;DHT22;6414;49.570;6.060;2023-11-19T16:30:01;10.50;99.90
12700;DHT22;6414;49.570;6.060;2023-11-19T16:32:59;10.50;99.90
12700;DHT22;6414;49.570;6.060;2023-11-19T16:35:45;10.50;99.90
12700;DHT22;6414;49.570;6.060;2023-11-19T16:38:31;10.50;99.90
12700;DHT22;6414;49.570;6.060;2023-11-19T16:41:20;10.50;99.90
12700;DHT22;6414;49.570;6.060;2023-11-19T16:44:06;10.50;99.90
12700;DHT22;6414;49.570;6.060;2023-11-19T16:46:51;10.40;99.90
12700;DHT22;6414;49.570;6.060;2023-11-19T16:49:38;10.40;99.90
12700;DHT22;6414;49.570;6.060;2023-11-19T16:52:24;10.40;99.90
12700;DHT22;6414;49.570;6.060;2023-11-19T16:55:10;10.40;99.90
12700;DHT22;6414;49.570;6.060;2023-11-19T16:57:58;10.40;99.90
12700;DHT22;6414;49.570;6.060;2023-11-19T17:00:44;10.40;99.90
12700;DHT22;6414;49.570;6.060;2023-11-19T17:03:30;10.40;99.90
12700;DHT22;6414;49.570;6.060;2023-11-19T17:06:17;10.40;99.90
12700;DHT22;6414;49.570;6.060;2023-11-19T17:09:03;10.40;99.90
12700;DHT22;6414;49.570;6.060;2023-11-19T17:11:49;10.40;99.90
12700;DHT22;6414;49.570;6.060;2023-11-19T17:14:35;10.40;99.90
12700;DHT22;6414;49.570;6.060;2023-11-19T17:17:21;10.50;99.90
12700;DHT22;6414;49.570;6.060;2023-11-19T17:20:07;10.50;99.90
12700;DHT22;6414;49.570;6.060;2023-11-19T17:22:53;10.50;99.90
12700;DHT22;6414;49.570;6.060;2023-11-19T17:25:39;10.50;99.90
12700;DHT22;6414;49.570;6.060;2023-11-19T17:28:25;10.50;99.90
12700;DHT22;6414;49.570;6.060;2023-11-19T17:31:12;10.60;99.90
12700;DHT22;6414;49.570;6.060;2023-11-19T17:33:58;10.60;99.90
12700;DHT22;6414;49.570;6.060;2023-11-19T17:36:44;10.60;99.90
12700;DHT22;6414;49.570;6.060;2023-11-19T17:39:30;10.60;99.90
12700;DHT22;6414;49.570;6.060;2023-11-19T17:42:16;10.60;99.90
12700;DHT22;6414;49.570;6.060;2023-11-19T17:45:02;10.60;99.90
12700;DHT22;6414;49.570;6.060;2023-11-19T17:47:48;10.60;99.90
12700;DHT22;6414;49.570;6.060;2023-11-19T17:50:37;10.60;99.90
12700;DHT22;6414;49.570;6.060;2023-11-19T17:53:23;10.70;99.90
12700;DHT22;6414;49.570;6.060;2023-11-19T17:56:09;10.70;99.90
12700;DHT22;6414;49.570;6.060;2023-11-19T17:58:55;10.70;99.90
12700;DHT22;6414;49.570;6.060;2023-11-19T18:01:41;10.70;99.90